sensor_id;sensor_type;location;lat;lon;timestamp;P1;durP1;ratioP1;P2;durP2;ratioP2
35298;SDS011;21415;48.054;16.646;2023-03-01T00:00:47;16.48;;;9.88;;
35298;SDS011;21415;48.054;16.646;2023-03-01T00:03:13;13.50;;;9.82;;
35298;SDS011;21415;48.054;16.646;2023-03-01T00:05:45;14.45;;;9.10;;
35298;SDS011;21415;48.054;16.646;2023-03-01T00:08:12;14.07;;;9.63;;
35298;SDS011;21415;48.054;16.646;2023-03-01T00:10:38;14.68;;;8.65;;
35298;SDS011;21415;48.054;16.646;2023-03-01T00:13:04;15.27;;;10.52;;
35298;SDS011;21415;48.054;16.646;2023-03-01T00:15:30;17.52;;;10.95;;
35298;SDS011;21415;48.054;16.646;2023-03-01T00:17:59;14.40;;;9.43;;
35298;SDS011;21415;48.054;16.646;2023-03-01T00:20:27;15.18;;;10.48;;
35298;SDS011;21415;48.054;16.646;2023-03-01T00:22:55;22.23;;;11.05;;
35298;SDS011;21415;48.054;16.646;2023-03-01T00:25:21;16.95;;;10.68;;
35298;SDS011;21415;48.054;16.646;2023-03-01T00:27:50;14.45;;;9.88;;
35298;SDS011;21415;48.054;16.646;2023-03-01T00:30:15;19.50;;;10.35;;
35298;SDS011;21415;48.054;16.646;2023-03-01T00:32:41;14.32;;;9.70;;
35298;SDS011;21415;48.054;16.646;2023-03-01T00:35:07;14.45;;;9.27;;
35298;SDS011;21415;48.054;16.646;2023-03-01T00:37:36;13.82;;;9.90;;
35298;SDS011;21415;48.054;16.646;2023-03-01T00:40:05;13.40;;;8.63;;
35298;SDS011;21415;48.054;16.646;2023-03-01T00:42:40;16.27;;;9.35;;
35298;SDS011;21415;48.054;16.646;2023-03-01T00:45:08;17.13;;;10.20;;
35298;SDS011;21415;48.054;16.646;2023-03-01T00:47:37;13.43;;;9.02;;
35298;SDS011;21415;48.054;16.646;2023-03-01T00:50:03;14.85;;;9.48;;
35298;SDS011;21415;48.054;16.646;2023-03-01T00:52:30;13.88;;;9.23;;
35298;SDS011;21415;48.054;16.646;2023-03-01T00:54:55;14.63;;;9.63;;
35298;SDS011;21415;48.054;16.646;2023-03-01T00:57:23;15.90;;;9.88;;
35298;SDS011;21415;48.054;16.646;2023-03-01T00:59:55;14.05;;;9.52;;
35298;SDS011;21415;48.054;16.646;2023-03-01T01:02:21;18.70;;;10.63;;
35298;SDS011;21415;48.054;16.646;2023-03-01T01:04:47;13.40;;;9.07;;
35298;SDS011;21415;48.054;16.646;2023-03-01T01:07:14;14.07;;;8.60;;
35298;SDS011;21415;48.054;16.646;2023-03-01T01:09:40;15.02;;;9.38;;
35298;SDS011;21415;48.054;16.646;2023-03-01T01:12:06;14.30;;;9.75;;
35298;SDS011;21415;48.054;16.646;2023-03-01T01:14:33;14.13;;;9.57;;
35298;SDS011;21415;48.054;16.646;2023-03-01T01:16:59;17.40;;;10.73;;
35298;SDS011;21415;48.054;16.646;2023-03-01T01:19:25;13.05;;;8.75;;
35298;SDS011;21415;48.054;16.646;2023-03-01T01:21:51;17.35;;;9.75;;
35298;SDS011;21415;48.054;16.646;2023-03-01T01:24:20;13.30;;;9.32;;
35298;SDS011;21415;48.054;16.646;2023-03-01T01:26:46;15.68;;;10.10;;
35298;SDS011;21415;48.054;16.646;2023-03-01T01:29:12;14.13;;;9.10;;
35298;SDS011;21415;48.054;16.646;2023-03-01T01:31:41;14.50;;;9.18;;
35298;SDS011;21415;48.054;16.646;2023-03-01T01:34:12;16.15;;;10.35;;
35298;SDS011;21415;48.054;16.646;2023-03-01T01:36:49;14.52;;;9.70;;
35298;SDS011;21415;48.054;16.646;2023-03-01T01:39:19;14.63;;;9.18;;
35298;SDS011;21415;48.054;16.646;2023-03-01T01:41:46;17.08;;;10.73;;
35298;SDS011;21415;48.054;16.646;2023-03-01T01:46:44;21.10;;;11.43;;
35298;SDS011;21415;48.054;16.646;2023-03-01T01:52:08;17.05;;;11.27;;
35298;SDS011;21415;48.054;16.646;2023-03-01T01:54:47;18.75;;;11.68;;
35298;SDS011;21415;48.054;16.646;2023-03-01T01:57:27;19.88;;;12.32;;
35298;SDS011;21415;48.054;16.646;2023-03-01T02:00:00;24.38;;;12.35;;
35298;SDS011;21415;48.054;16.646;2023-03-01T02:02:40;20.13;;;12.32;;
35298;SDS011;21415;48.054;16.646;2023-03-01T02:05:09;17.90;;;10.90;;
35298;SDS011;21415;48.054;16.646;2023-03-01T02:08:03;19.23;;;10.63;;
35298;SDS011;21415;48.054;16.646;2023-03-01T02:10:29;15.07;;;10.30;;
35298;SDS011;21415;48.054;16.646;2023-03-01T02:12:58;17.30;;;11.15;;
35298;SDS011;21415;48.054;16.646;2023-03-01T02:15:26;18.58;;;11.13;;
35298;SDS011;21415;48.054;16.646;2023-03-01T02:17:55;15.95;;;10.50;;
35298;SDS011;21415;48.054;16.646;2023-03-01T02:22:57;17.25;;;10.35;;
35298;SDS011;21415;48.054;16.646;2023-03-01T02:25:32;15.60;;;9.98;;
35298;SDS011;21415;48.054;16.646;2023-03-01T02:28:26;17.67;;;9.93;;
35298;SDS011;21415;48.054;16.646;2023-03-01T02:30:58;18.65;;;10.80;;
35298;SDS011;21415;48.054;16.646;2023-03-01T02:33:42;15.07;;;9.98;;
35298;SDS011;21415;48.054;16.646;2023-03-01T02:36:10;14.85;;;9.95;;
35298;SDS011;21415;48.054;16.646;2023-03-01T02:38:43;15.65;;;10.98;;
35298;SDS011;21415;48.054;16.646;2023-03-01T02:41:15;19.17;;;10.77;;
35298;SDS011;21415;48.054;16.646;2023-03-01T02:43:44;16.65;;;11.25;;
35298;SDS011;21415;48.054;16.646;2023-03-01T02:46:17;18.13;;;11.60;;
35298;SDS011;21415;48.054;16.646;2023-03-01T02:48:46;16.30;;;10.95;;
35298;SDS011;21415;48.054;16.646;2023-03-01T02:57:09;14.77;;;10.05;;
35298;SDS011;21415;48.054;16.646;2023-03-01T02:59:36;16.60;;;10.93;;
35298;SDS011;21415;48.054;16.646;2023-03-01T03:02:24;16.40;;;10.30;;
35298;SDS011;21415;48.054;16.646;2023-03-01T03:05:15;16.70;;;10.20;;
35298;SDS011;21415;48.054;16.646;2023-03-01T03:07:45;17.95;;;10.85;;
35298;SDS011;21415;48.054;16.646;2023-03-01T03:10:17;18.02;;;11.05;;
35298;SDS011;21415;48.054;16.646;2023-03-01T03:12:49;17.80;;;10.98;;
35298;SDS011;21415;48.054;16.646;2023-03-01T03:15:20;15.73;;;10.85;;
35298;SDS011;21415;48.054;16.646;2023-03-01T03:17:50;18.13;;;11.32;;
35298;SDS011;21415;48.054;16.646;2023-03-01T03:20:18;17.50;;;11.18;;
35298;SDS011;21415;48.054;16.646;2023-03-01T03:22:46;19.92;;;11.98;;
35298;SDS011;21415;48.054;16.646;2023-03-01T03:25:13;20.05;;;11.80;;
35298;SDS011;21415;48.054;16.646;2023-03-01T03:27:40;18.48;;;11.48;;
35298;SDS011;21415;48.054;16.646;2023-03-01T03:30:13;19.55;;;11.77;;
35298;SDS011;21415;48.054;16.646;2023-03-01T03:32:41;18.25;;;10.73;;
35298;SDS011;21415;48.054;16.646;2023-03-01T03:35:23;18.70;;;12.10;;
35298;SDS011;21415;48.054;16.646;2023-03-01T03:37:57;17.20;;;10.80;;
35298;SDS011;21415;48.054;16.646;2023-03-01T03:40:27;17.27;;;11.52;;
35298;SDS011;21415;48.054;16.646;2023-03-01T03:43:04;23.23;;;12.40;;
35298;SDS011;21415;48.054;16.646;2023-03-01T03:45:32;20.42;;;11.52;;
35298;SDS011;21415;48.054;16.646;2023-03-01T03:50:25;19.08;;;11.35;;
35298;SDS011;21415;48.054;16.646;2023-03-01T03:52:51;19.13;;;11.90;;
35298;SDS011;21415;48.054;16.646;2023-03-01T03:55:17;18.95;;;12.70;;
35298;SDS011;21415;48.054;16.646;2023-03-01T03:57:45;20.33;;;12.73;;
35298;SDS011;21415;48.054;16.646;2023-03-01T04:00:18;20.30;;;11.98;;
35298;SDS011;21415;48.054;16.646;2023-03-01T04:02:45;20.20;;;13.15;;
35298;SDS011;21415;48.054;16.646;2023-03-01T04:05:13;18.75;;;12.45;;
35298;SDS011;21415;48.054;16.646;2023-03-01T04:07:41;20.40;;;12.95;;
35298;SDS011;21415;48.054;16.646;2023-03-01T04:10:13;22.30;;;13.57;;
35298;SDS011;21415;48.054;16.646;2023-03-01T04:12:40;23.48;;;13.25;;
35298;SDS011;21415;48.054;16.646;2023-03-01T04:15:08;22.00;;;12.70;;
35298;SDS011;21415;48.054;16.646;2023-03-01T04:17:38;22.30;;;13.00;;
35298;SDS011;21415;48.054;16.646;2023-03-01T04:20:10;23.77;;;13.10;;
35298;SDS011;21415;48.054;16.646;2023-03-01T04:22:38;20.27;;;12.68;;
35298;SDS011;21415;48.054;16.646;2023-03-01T04:25:05;21.58;;;13.23;;
35298;SDS011;21415;48.054;16.646;2023-03-01T04:29:58;16.10;;;11.32;;
35298;SDS011;21415;48.054;16.646;2023-03-01T04:32:24;21.17;;;12.80;;
35298;SDS011;21415;48.054;16.646;2023-03-01T04:34:50;24.63;;;13.57;;
35298;SDS011;21415;48.054;16.646;2023-03-01T04:37:15;22.73;;;14.13;;
35298;SDS011;21415;48.054;16.646;2023-03-01T04:39:43;23.80;;;13.80;;
35298;SDS011;21415;48.054;16.646;2023-03-01T04:42:13;19.25;;;13.50;;
35298;SDS011;21415;48.054;16.646;2023-03-01T04:44:42;21.83;;;14.07;;
35298;SDS011;21415;48.054;16.646;2023-03-01T04:47:08;23.98;;;14.00;;
35298;SDS011;21415;48.054;16.646;2023-03-01T04:52:01;21.38;;;12.95;;
35298;SDS011;21415;48.054;16.646;2023-03-01T04:54:32;21.88;;;14.20;;
35298;SDS011;21415;48.054;16.646;2023-03-01T04:57:00;21.33;;;13.23;;
35298;SDS011;21415;48.054;16.646;2023-03-01T04:59:26;20.27;;;13.32;;
35298;SDS011;21415;48.054;16.646;2023-03-01T05:01:53;20.30;;;13.35;;
35298;SDS011;21415;48.054;16.646;2023-03-01T05:04:21;24.55;;;13.70;;
35298;SDS011;21415;48.054;16.646;2023-03-01T05:06:47;22.90;;;14.10;;
35298;SDS011;21415;48.054;16.646;2023-03-01T05:09:15;23.45;;;15.35;;
35298;SDS011;21415;48.054;16.646;2023-03-01T05:11:42;23.67;;;14.68;;
35298;SDS011;21415;48.054;16.646;2023-03-01T05:14:11;26.27;;;15.18;;
35298;SDS011;21415;48.054;16.646;2023-03-01T05:16:37;24.73;;;15.02;;
35298;SDS011;21415;48.054;16.646;2023-03-01T05:19:03;24.63;;;14.75;;
35298;SDS011;21415;48.054;16.646;2023-03-01T05:21:37;26.08;;;14.70;;
35298;SDS011;21415;48.054;16.646;2023-03-01T05:24:27;22.80;;;13.93;;
35298;SDS011;21415;48.054;16.646;2023-03-01T05:26:54;22.88;;;14.30;;
35298;SDS011;21415;48.054;16.646;2023-03-01T05:29:20;23.10;;;14.95;;
35298;SDS011;21415;48.054;16.646;2023-03-01T05:31:53;30.33;;;18.92;;
35298;SDS011;21415;48.054;16.646;2023-03-01T05:34:26;26.83;;;16.58;;
35298;SDS011;21415;48.054;16.646;2023-03-01T05:36:55;24.27;;;15.02;;
35298;SDS011;21415;48.054;16.646;2023-03-01T05:39:22;23.55;;;15.15;;
35298;SDS011;21415;48.054;16.646;2023-03-01T05:41:55;26.83;;;16.13;;
35298;SDS011;21415;48.054;16.646;2023-03-01T05:44:22;27.17;;;14.93;;
35298;SDS011;21415;48.054;16.646;2023-03-01T05:46:48;23.77;;;14.30;;
35298;SDS011;21415;48.054;16.646;2023-03-01T05:49:15;25.38;;;15.57;;
35298;SDS011;21415;48.054;16.646;2023-03-01T05:51:41;22.85;;;15.57;;
35298;SDS011;21415;48.054;16.646;2023-03-01T05:54:09;24.35;;;15.25;;
35298;SDS011;21415;48.054;16.646;2023-03-01T05:56:35;21.85;;;14.23;;
35298;SDS011;21415;48.054;16.646;2023-03-01T05:59:02;26.10;;;14.90;;
35298;SDS011;21415;48.054;16.646;2023-03-01T06:01:30;26.17;;;15.32;;
35298;SDS011;21415;48.054;16.646;2023-03-01T06:03:57;26.55;;;15.60;;
35298;SDS011;21415;48.054;16.646;2023-03-01T06:06:23;23.65;;;15.27;;
35298;SDS011;21415;48.054;16.646;2023-03-01T06:08:49;24.77;;;14.68;;
35298;SDS011;21415;48.054;16.646;2023-03-01T06:11:15;24.63;;;15.65;;
35298;SDS011;21415;48.054;16.646;2023-03-01T06:13:44;28.60;;;15.00;;
35298;SDS011;21415;48.054;16.646;2023-03-01T06:16:10;26.52;;;15.65;;
35298;SDS011;21415;48.054;16.646;2023-03-01T06:18:37;23.60;;;15.38;;
35298;SDS011;21415;48.054;16.646;2023-03-01T06:21:03;25.65;;;15.75;;
35298;SDS011;21415;48.054;16.646;2023-03-01T06:23:30;26.88;;;15.93;;
35298;SDS011;21415;48.054;16.646;2023-03-01T06:25:56;26.17;;;15.52;;
35298;SDS011;21415;48.054;16.646;2023-03-01T06:28:22;25.35;;;15.77;;
35298;SDS011;21415;48.054;16.646;2023-03-01T06:30:48;26.35;;;15.18;;
35298;SDS011;21415;48.054;16.646;2023-03-01T06:33:14;28.75;;;17.55;;
35298;SDS011;21415;48.054;16.646;2023-03-01T06:35:40;25.43;;;15.30;;
35298;SDS011;21415;48.054;16.646;2023-03-01T06:38:06;28.27;;;16.97;;
35298;SDS011;21415;48.054;16.646;2023-03-01T06:40:32;25.90;;;15.98;;
35298;SDS011;21415;48.054;16.646;2023-03-01T06:43:00;26.52;;;16.10;;
35298;SDS011;21415;48.054;16.646;2023-03-01T06:45:26;26.13;;;16.23;;
35298;SDS011;21415;48.054;16.646;2023-03-01T06:47:52;29.35;;;17.30;;
35298;SDS011;21415;48.054;16.646;2023-03-01T06:50:18;27.15;;;15.48;;
35298;SDS011;21415;48.054;16.646;2023-03-01T06:52:44;26.30;;;16.08;;
35298;SDS011;21415;48.054;16.646;2023-03-01T06:57:37;23.15;;;14.20;;
35298;SDS011;21415;48.054;16.646;2023-03-01T07:00:03;24.90;;;14.57;;
35298;SDS011;21415;48.054;16.646;2023-03-01T07:02:30;26.27;;;15.45;;
35298;SDS011;21415;48.054;16.646;2023-03-01T07:04:56;22.90;;;15.98;;
35298;SDS011;21415;48.054;16.646;2023-03-01T07:07:22;25.38;;;15.57;;
35298;SDS011;21415;48.054;16.646;2023-03-01T07:09:48;28.13;;;16.08;;
35298;SDS011;21415;48.054;16.646;2023-03-01T07:12:14;27.98;;;16.00;;
35298;SDS011;21415;48.054;16.646;2023-03-01T07:14:40;25.00;;;16.00;;
35298;SDS011;21415;48.054;16.646;2023-03-01T07:17:06;28.48;;;16.42;;
35298;SDS011;21415;48.054;16.646;2023-03-01T07:19:32;27.05;;;16.38;;
35298;SDS011;21415;48.054;16.646;2023-03-01T07:21:58;25.85;;;16.20;;
35298;SDS011;21415;48.054;16.646;2023-03-01T07:24:24;28.20;;;17.63;;
35298;SDS011;21415;48.054;16.646;2023-03-01T07:26:50;27.17;;;15.95;;
35298;SDS011;21415;48.054;16.646;2023-03-01T07:34:07;18.75;;;12.13;;
35298;SDS011;21415;48.054;16.646;2023-03-01T07:36:33;27.10;;;15.40;;
35298;SDS011;21415;48.054;16.646;2023-03-01T07:38:59;23.43;;;14.63;;
35298;SDS011;21415;48.054;16.646;2023-03-01T07:41:27;29.33;;;16.88;;
35298;SDS011;21415;48.054;16.646;2023-03-01T07:43:53;29.60;;;16.67;;
35298;SDS011;21415;48.054;16.646;2023-03-01T07:46:19;26.23;;;16.37;;
35298;SDS011;21415;48.054;16.646;2023-03-01T07:48:45;25.60;;;16.60;;
35298;SDS011;21415;48.054;16.646;2023-03-01T07:51:11;24.77;;;15.65;;
35298;SDS011;21415;48.054;16.646;2023-03-01T07:53:37;25.90;;;17.60;;
35298;SDS011;21415;48.054;16.646;2023-03-01T07:56:07;32.63;;;17.98;;
35298;SDS011;21415;48.054;16.646;2023-03-01T07:58:35;25.92;;;16.35;;
35298;SDS011;21415;48.054;16.646;2023-03-01T08:01:05;26.65;;;16.90;;
35298;SDS011;21415;48.054;16.646;2023-03-01T08:03:33;26.95;;;17.25;;
35298;SDS011;21415;48.054;16.646;2023-03-01T08:06:00;27.75;;;18.30;;
35298;SDS011;21415;48.054;16.646;2023-03-01T08:08:27;25.08;;;16.38;;
35298;SDS011;21415;48.054;16.646;2023-03-01T08:10:56;28.25;;;17.92;;
35298;SDS011;21415;48.054;16.646;2023-03-01T08:13:22;27.30;;;16.15;;
35298;SDS011;21415;48.054;16.646;2023-03-01T08:15:48;25.08;;;17.10;;
35298;SDS011;21415;48.054;16.646;2023-03-01T08:18:18;27.63;;;17.02;;
35298;SDS011;21415;48.054;16.646;2023-03-01T08:20:45;28.40;;;17.85;;
35298;SDS011;21415;48.054;16.646;2023-03-01T08:23:11;27.38;;;16.88;;
35298;SDS011;21415;48.054;16.646;2023-03-01T08:25:37;24.27;;;17.10;;
35298;SDS011;21415;48.054;16.646;2023-03-01T08:28:03;27.33;;;17.35;;
35298;SDS011;21415;48.054;16.646;2023-03-01T08:30:29;28.67;;;16.13;;
35298;SDS011;21415;48.054;16.646;2023-03-01T08:32:55;30.67;;;16.77;;
35298;SDS011;21415;48.054;16.646;2023-03-01T08:35:21;26.00;;;16.38;;
35298;SDS011;21415;48.054;16.646;2023-03-01T08:37:47;27.15;;;17.05;;
35298;SDS011;21415;48.054;16.646;2023-03-01T08:40:13;21.42;;;15.30;;
35298;SDS011;21415;48.054;16.646;2023-03-01T08:42:41;24.65;;;16.60;;
35298;SDS011;21415;48.054;16.646;2023-03-01T08:45:10;27.30;;;16.63;;
35298;SDS011;21415;48.054;16.646;2023-03-01T08:47:36;25.83;;;16.20;;
35298;SDS011;21415;48.054;16.646;2023-03-01T08:50:02;25.02;;;16.40;;
35298;SDS011;21415;48.054;16.646;2023-03-01T08:54:55;22.85;;;14.82;;
35298;SDS011;21415;48.054;16.646;2023-03-01T08:57:21;21.50;;;14.70;;
35298;SDS011;21415;48.054;16.646;2023-03-01T08:59:47;22.92;;;15.40;;
35298;SDS011;21415;48.054;16.646;2023-03-01T09:02:14;25.10;;;15.93;;
35298;SDS011;21415;48.054;16.646;2023-03-01T09:04:41;23.23;;;16.70;;
35298;SDS011;21415;48.054;16.646;2023-03-01T09:07:07;29.92;;;20.85;;
35298;SDS011;21415;48.054;16.646;2023-03-01T09:09:34;27.88;;;18.23;;
35298;SDS011;21415;48.054;16.646;2023-03-01T09:14:27;20.77;;;14.52;;
35298;SDS011;21415;48.054;16.646;2023-03-01T09:16:53;23.35;;;15.23;;
35298;SDS011;21415;48.054;16.646;2023-03-01T09:19:19;20.65;;;14.32;;
35298;SDS011;21415;48.054;16.646;2023-03-01T09:21:44;23.50;;;14.95;;
35298;SDS011;21415;48.054;16.646;2023-03-01T09:24:17;22.88;;;14.40;;
35298;SDS011;21415;48.054;16.646;2023-03-01T09:26:45;19.48;;;13.63;;
35298;SDS011;21415;48.054;16.646;2023-03-01T09:29:12;17.90;;;13.30;;
35298;SDS011;21415;48.054;16.646;2023-03-01T09:31:39;21.65;;;14.48;;
35298;SDS011;21415;48.054;16.646;2023-03-01T09:34:05;21.15;;;13.80;;
35298;SDS011;21415;48.054;16.646;2023-03-01T09:36:32;19.17;;;13.18;;
35298;SDS011;21415;48.054;16.646;2023-03-01T09:38:58;21.73;;;14.60;;
35298;SDS011;21415;48.054;16.646;2023-03-01T09:46:49;17.90;;;12.00;;
35298;SDS011;21415;48.054;16.646;2023-03-01T09:49:20;18.45;;;12.75;;
35298;SDS011;21415;48.054;16.646;2023-03-01T09:52:33;20.65;;;13.00;;
35298;SDS011;21415;48.054;16.646;2023-03-01T09:54:47;18.00;;;12.30;;
35298;SDS011;21415;48.054;16.646;2023-03-01T10:04:50;18.13;;;10.57;;
35298;SDS011;21415;48.054;16.646;2023-03-01T10:07:27;17.83;;;11.45;;
35298;SDS011;21415;48.054;16.646;2023-03-01T10:10:10;17.85;;;11.23;;
35298;SDS011;21415;48.054;16.646;2023-03-01T10:12:50;16.60;;;11.40;;
35298;SDS011;21415;48.054;16.646;2023-03-01T10:15:31;16.08;;;11.32;;
35298;SDS011;21415;48.054;16.646;2023-03-01T10:18:09;13.48;;;9.73;;
35298;SDS011;21415;48.054;16.646;2023-03-01T10:20:52;18.25;;;10.80;;
35298;SDS011;21415;48.054;16.646;2023-03-01T10:23:22;14.90;;;9.93;;
35298;SDS011;21415;48.054;16.646;2023-03-01T10:28:58;16.15;;;10.20;;
35298;SDS011;21415;48.054;16.646;2023-03-01T10:31:37;13.50;;;9.77;;
35298;SDS011;21415;48.054;16.646;2023-03-01T10:34:07;13.38;;;9.45;;
35298;SDS011;21415;48.054;16.646;2023-03-01T10:39:57;14.05;;;9.90;;
35298;SDS011;21415;48.054;16.646;2023-03-01T10:42:38;13.27;;;9.45;;
35298;SDS011;21415;48.054;16.646;2023-03-01T10:48:01;14.57;;;9.82;;
35298;SDS011;21415;48.054;16.646;2023-03-01T10:50:28;72.38;;;43.30;;
35298;SDS011;21415;48.054;16.646;2023-03-01T10:52:55;402.60;;;232.52;;
35298;SDS011;21415;48.054;16.646;2023-03-01T10:55:26;221.80;;;136.32;;
35298;SDS011;21415;48.054;16.646;2023-03-01T10:58:18;80.10;;;51.05;;
35298;SDS011;21415;48.054;16.646;2023-03-01T11:03:21;26.00;;;17.88;;
35298;SDS011;21415;48.054;16.646;2023-03-01T11:05:55;17.10;;;12.93;;
35298;SDS011;21415;48.054;16.646;2023-03-01T11:08:45;18.15;;;12.70;;
35298;SDS011;21415;48.054;16.646;2023-03-01T11:11:32;14.13;;;10.85;;
35298;SDS011;21415;48.054;16.646;2023-03-01T11:17:04;13.25;;;9.07;;
35298;SDS011;21415;48.054;16.646;2023-03-01T11:19:37;19.50;;;10.98;;
35298;SDS011;21415;48.054;16.646;2023-03-01T11:22:13;12.13;;;8.75;;
35298;SDS011;21415;48.054;16.646;2023-03-01T11:24:43;16.00;;;9.25;;
35298;SDS011;21415;48.054;16.646;2023-03-01T11:27:23;12.88;;;9.13;;
35298;SDS011;21415;48.054;16.646;2023-03-01T11:29:52;10.77;;;7.80;;
35298;SDS011;21415;48.054;16.646;2023-03-01T11:32:26;11.88;;;7.65;;
35298;SDS011;21415;48.054;16.646;2023-03-01T11:34:58;9.43;;;6.85;;
35298;SDS011;21415;48.054;16.646;2023-03-01T11:37:41;13.38;;;7.38;;
35298;SDS011;21415;48.054;16.646;2023-03-01T11:40:39;9.68;;;7.00;;
35298;SDS011;21415;48.054;16.646;2023-03-01T11:51:16;11.25;;;8.23;;
35298;SDS011;21415;48.054;16.646;2023-03-01T11:53:53;11.38;;;8.18;;
35298;SDS011;21415;48.054;16.646;2023-03-01T11:56:33;12.32;;;8.10;;
35298;SDS011;21415;48.054;16.646;2023-03-01T12:18:41;12.75;;;8.30;;
35298;SDS011;21415;48.054;16.646;2023-03-01T12:24:09;10.73;;;8.10;;
35298;SDS011;21415;48.054;16.646;2023-03-01T12:35:03;11.38;;;8.73;;
35298;SDS011;21415;48.054;16.646;2023-03-01T12:40:41;12.93;;;9.73;;
35298;SDS011;21415;48.054;16.646;2023-03-01T12:51:16;13.05;;;9.18;;
35298;SDS011;21415;48.054;16.646;2023-03-01T12:53:49;12.90;;;9.38;;
35298;SDS011;21415;48.054;16.646;2023-03-01T12:56:19;12.68;;;9.13;;
35298;SDS011;21415;48.054;16.646;2023-03-01T12:58:55;13.20;;;9.43;;
35298;SDS011;21415;48.054;16.646;2023-03-01T13:04:05;12.43;;;8.65;;
35298;SDS011;21415;48.054;16.646;2023-03-01T13:17:53;12.40;;;9.07;;
35298;SDS011;21415;48.054;16.646;2023-03-01T13:20:21;11.65;;;8.30;;
35298;SDS011;21415;48.054;16.646;2023-03-01T13:30:57;10.65;;;8.32;;
35298;SDS011;21415;48.054;16.646;2023-03-01T13:33:33;12.15;;;9.38;;
35298;SDS011;21415;48.054;16.646;2023-03-01T13:36:06;12.02;;;9.32;;
35298;SDS011;21415;48.054;16.646;2023-03-01T13:41:13;12.43;;;8.25;;
35298;SDS011;21415;48.054;16.646;2023-03-01T13:43:41;11.98;;;8.60;;
35298;SDS011;21415;48.054;16.646;2023-03-01T13:46:09;11.30;;;8.82;;
35298;SDS011;21415;48.054;16.646;2023-03-01T13:48:40;14.88;;;9.93;;
35298;SDS011;21415;48.054;16.646;2023-03-01T13:51:10;11.02;;;8.55;;
35298;SDS011;21415;48.054;16.646;2023-03-01T13:53:44;15.32;;;8.52;;
35298;SDS011;21415;48.054;16.646;2023-03-01T13:56:13;12.35;;;7.53;;
35298;SDS011;21415;48.054;16.646;2023-03-01T13:59:13;10.65;;;6.80;;
35298;SDS011;21415;48.054;16.646;2023-03-01T14:01:44;10.27;;;7.15;;
35298;SDS011;21415;48.054;16.646;2023-03-01T14:04:30;11.18;;;7.68;;
35298;SDS011;21415;48.054;16.646;2023-03-01T14:07:21;12.27;;;6.90;;
35298;SDS011;21415;48.054;16.646;2023-03-01T14:09:56;10.13;;;7.38;;
35298;SDS011;21415;48.054;16.646;2023-03-01T14:15:33;8.60;;;6.32;;
35298;SDS011;21415;48.054;16.646;2023-03-01T14:21:08;7.47;;;6.07;;
35298;SDS011;21415;48.054;16.646;2023-03-01T14:23:34;10.45;;;6.88;;
35298;SDS011;21415;48.054;16.646;2023-03-01T14:26:01;8.00;;;6.75;;
35298;SDS011;21415;48.054;16.646;2023-03-01T14:28:28;11.20;;;7.63;;
35298;SDS011;21415;48.054;16.646;2023-03-01T14:30:59;12.85;;;7.63;;
35298;SDS011;21415;48.054;16.646;2023-03-01T14:33:28;12.20;;;7.10;;
35298;SDS011;21415;48.054;16.646;2023-03-01T14:38:38;11.07;;;7.38;;
35298;SDS011;21415;48.054;16.646;2023-03-01T14:41:13;10.25;;;6.07;;
35298;SDS011;21415;48.054;16.646;2023-03-01T14:43:41;10.57;;;6.97;;
35298;SDS011;21415;48.054;16.646;2023-03-01T14:51:41;10.18;;;6.55;;
35298;SDS011;21415;48.054;16.646;2023-03-01T14:56:59;10.48;;;7.53;;
35298;SDS011;21415;48.054;16.646;2023-03-01T14:59:25;11.50;;;6.82;;
35298;SDS011;21415;48.054;16.646;2023-03-01T15:01:53;8.73;;;6.32;;
35298;SDS011;21415;48.054;16.646;2023-03-01T15:04:21;8.80;;;7.07;;
35298;SDS011;21415;48.054;16.646;2023-03-01T15:06:52;8.82;;;7.13;;
35298;SDS011;21415;48.054;16.646;2023-03-01T15:09:20;8.38;;;6.60;;
35298;SDS011;21415;48.054;16.646;2023-03-01T15:11:49;10.68;;;7.03;;
35298;SDS011;21415;48.054;16.646;2023-03-01T15:14:28;10.45;;;7.85;;
35298;SDS011;21415;48.054;16.646;2023-03-01T15:19:56;10.57;;;7.25;;
35298;SDS011;21415;48.054;16.646;2023-03-01T15:22:22;9.57;;;7.07;;
35298;SDS011;21415;48.054;16.646;2023-03-01T15:24:51;9.23;;;7.32;;
35298;SDS011;21415;48.054;16.646;2023-03-01T15:27:21;12.02;;;7.57;;
35298;SDS011;21415;48.054;16.646;2023-03-01T15:29:53;10.82;;;7.80;;
35298;SDS011;21415;48.054;16.646;2023-03-01T15:32:31;11.10;;;8.27;;
35298;SDS011;21415;48.054;16.646;2023-03-01T15:38:00;12.70;;;8.90;;
35298;SDS011;21415;48.054;16.646;2023-03-01T15:40:27;13.23;;;8.82;;
35298;SDS011;21415;48.054;16.646;2023-03-01T15:42:58;10.98;;;7.60;;
35298;SDS011;21415;48.054;16.646;2023-03-01T15:45:29;10.45;;;8.10;;
35298;SDS011;21415;48.054;16.646;2023-03-01T15:48:03;10.85;;;8.18;;
35298;SDS011;21415;48.054;16.646;2023-03-01T15:50:31;13.25;;;8.38;;
35298;SDS011;21415;48.054;16.646;2023-03-01T15:52:59;10.80;;;8.95;;
35298;SDS011;21415;48.054;16.646;2023-03-01T15:55:27;12.43;;;8.23;;
35298;SDS011;21415;48.054;16.646;2023-03-01T16:00:32;13.50;;;8.23;;
35298;SDS011;21415;48.054;16.646;2023-03-01T16:02:58;10.52;;;7.80;;
35298;SDS011;21415;48.054;16.646;2023-03-01T16:05:26;10.77;;;8.30;;
35298;SDS011;21415;48.054;16.646;2023-03-01T16:08:00;14.27;;;9.03;;
35298;SDS011;21415;48.054;16.646;2023-03-01T16:10:26;10.63;;;8.68;;
35298;SDS011;21415;48.054;16.646;2023-03-01T16:12:55;12.23;;;8.63;;
35298;SDS011;21415;48.054;16.646;2023-03-01T16:15:27;11.80;;;8.00;;
35298;SDS011;21415;48.054;16.646;2023-03-01T16:17:55;11.38;;;8.25;;
35298;SDS011;21415;48.054;16.646;2023-03-01T16:20:23;10.98;;;8.00;;
35298;SDS011;21415;48.054;16.646;2023-03-01T16:22:49;13.15;;;8.57;;
35298;SDS011;21415;48.054;16.646;2023-03-01T16:25:17;13.27;;;8.70;;
35298;SDS011;21415;48.054;16.646;2023-03-01T16:27:45;13.43;;;8.70;;
35298;SDS011;21415;48.054;16.646;2023-03-01T16:30:14;12.02;;;8.63;;
35298;SDS011;21415;48.054;16.646;2023-03-01T16:32:43;12.25;;;8.43;;
35298;SDS011;21415;48.054;16.646;2023-03-01T16:35:11;13.88;;;8.50;;
35298;SDS011;21415;48.054;16.646;2023-03-01T16:37:38;12.63;;;8.90;;
35298;SDS011;21415;48.054;16.646;2023-03-01T16:40:05;11.88;;;8.80;;
35298;SDS011;21415;48.054;16.646;2023-03-01T16:42:37;13.50;;;9.82;;
35298;SDS011;21415;48.054;16.646;2023-03-01T16:45:06;12.77;;;9.25;;
35298;SDS011;21415;48.054;16.646;2023-03-01T16:49:58;11.10;;;8.02;;
35298;SDS011;21415;48.054;16.646;2023-03-01T16:52:24;11.55;;;8.02;;
35298;SDS011;21415;48.054;16.646;2023-03-01T16:54:49;12.57;;;9.52;;
35298;SDS011;21415;48.054;16.646;2023-03-01T16:57:15;17.15;;;11.80;;
35298;SDS011;21415;48.054;16.646;2023-03-01T16:59:41;14.02;;;9.85;;
35298;SDS011;21415;48.054;16.646;2023-03-01T17:02:10;12.88;;;8.23;;
35298;SDS011;21415;48.054;16.646;2023-03-01T17:04:38;13.25;;;9.10;;
35298;SDS011;21415;48.054;16.646;2023-03-01T17:07:04;12.10;;;8.27;;
35298;SDS011;21415;48.054;16.646;2023-03-01T17:09:33;12.60;;;8.73;;
35298;SDS011;21415;48.054;16.646;2023-03-01T17:12:00;13.32;;;8.55;;